Time;durP1;ratioP1;P1;durP2;ratioP2;P2;SDS_P1;SDS_P2;PMS_P1;PMS_P2;Temp;Humidity;BMP_temperature;BMP_pressure;BME280_temperature;BME280_humidity;BME280_pressure;Samples;Min_cycle;Max_cycle;Signal;HPM_P1;HPM_P2
2021/12/24 00:00:50;;;;;;;31.70;16.37;;;;;;;-5.70;69.41;95256.12;1613416;88;21062;-62
2021/12/24 00:03:16;;;;;;;32.13;14.60;;;;;;;-5.75;69.57;95252.52;1613394;88;21066;-63
2021/12/24 00:05:44;;;;;;;31.43;14.73;;;;;;;-5.70;69.31;95255.71;1613187;88;21059;-63
2021/12/24 00:08:11;;;;;;;25.23;13.10;;;;;;;-5.77;69.35;95249.91;1613352;88;21069;-63
2021/12/24 00:10:40;;;;;;;30.10;14.37;;;;;;;-5.80;69.71;95259.17;1613499;88;21066;-62
2021/12/24 00:13:11;;;;;;;34.43;15.10;;;;;;;-5.85;69.63;95242.70;1613373;89;21066;-63
2021/12/24 00:37:27;;;;;;;30.67;14.77;;;;;;;-5.84;70.34;95193.96;1618220;89;21556;-62
2021/12/24 00:40:10;;;;;;;30.03;14.67;;;;;;;-5.78;70.51;95171.47;1618178;88;21551;-63
2021/12/24 00:42:23;;;;;;;25.90;13.93;;;;;;;-5.82;70.38;95179.87;1614764;89;21039;-63
2021/12/24 00:44:50;;;;;;;24.73;11.13;;;;;;;-5.84;70.35;95186.67;1617919;89;21077;-63
2021/12/24 00:47:17;;;;;;;32.50;15.13;;;;;;;-5.83;69.89;95187.99;1618206;89;21054;-62
2021/12/24 00:49:43;;;;;;;29.07;14.13;;;;;;;-5.88;70.51;95178.83;1618037;89;21030;-63
2021/12/24 00:57:28;;;;;;;23.47;12.27;;;;;;;-5.72;70.47;95176.81;1617904;89;21069;-62
2021/12/24 00:59:55;;;;;;;24.17;12.87;;;;;;;-5.75;70.18;95172.44;1618108;89;21034;-62
2021/12/24 01:02:22;;;;;;;27.83;13.10;;;;;;;-5.76;70.11;95164.69;1618171;89;21050;-63
2021/12/24 01:04:49;;;;;;;29.07;15.23;;;;;;;-5.73;70.03;95167.37;1618001;89;21564;-62
2021/12/24 01:07:16;;;;;;;27.00;13.33;;;;;;;-5.75;70.07;95158.30;1617992;89;21062;-62
2021/12/24 01:09:43;;;;;;;26.90;13.83;;;;;;;-5.74;70.17;95157.92;1617616;89;21094;-62
2021/12/24 01:12:10;;;;;;;26.70;14.33;;;;;;;-5.75;70.31;95140.31;1618163;89;21082;-63
2021/12/24 01:14:37;;;;;;;29.63;14.60;;;;;;;-5.63;70.58;95140.31;1618192;89;21066;-62
2021/12/24 01:19:48;;;;;;;27.70;14.17;;;;;;;-5.54;69.84;95143.22;1618133;88;21565;-63
2021/12/24 01:38:16;;;;;;;26.17;13.80;;;;;;;-5.49;70.55;95092.42;1613097;89;21067;-62
2021/12/24 01:41:04;;;;;;;27.60;14.57;;;;;;;-5.54;71.53;95090.52;1613202;88;21126;-63
2021/12/24 01:43:22;;;;;;;27.77;14.80;;;;;;;-5.53;71.69;95090.97;1611159;89;21062;-63
2021/12/24 01:45:53;;;;;;;28.93;14.33;;;;;;;-5.56;72.13;95083.16;1613403;88;21107;-63
2021/12/24 01:48:20;;;;;;;33.23;17.07;;;;;;;-5.61;72.40;95085.57;1613546;88;21535;-62
2021/12/24 01:50:49;;;;;;;36.23;19.13;;;;;;;-5.61;73.14;95071.44;1613273;88;21221;-63
2021/12/24 01:53:20;;;;;;;32.53;16.10;;;;;;;-5.55;72.96;95066.48;1588362;89;21038;-62
2021/12/24 01:55:51;;;;;;;28.03;13.90;;;;;;;-5.45;72.97;95053.54;1588500;89;21035;-63
2021/12/24 01:58:24;;;;;;;31.40;14.37;;;;;;;-5.42;73.07;95058.77;1613553;88;21026;-63
2021/12/24 02:00:54;;;;;;;28.63;14.93;;;;;;;-5.48;73.00;95039.30;1613498;89;21564;-62
2021/12/24 02:03:20;;;;;;;29.33;15.00;;;;;;;-5.43;73.17;95042.90;1613527;88;21039;-62
2021/12/24 02:05:49;;;;;;;30.47;15.30;;;;;;;-5.42;73.53;95043.77;1613455;88;21561;-63
2021/12/24 02:08:17;;;;;;;28.73;15.10;;;;;;;-5.42;73.52;95036.05;1613519;88;21011;-62
2021/12/24 02:10:45;;;;;;;32.90;16.03;;;;;;;-5.49;73.75;95022.14;1613296;88;21078;-63
2021/12/24 02:13:14;;;;;;;29.63;14.77;;;;;;;-5.47;73.76;95031.66;1613136;88;21091;-63
2021/12/24 02:16:06;;;;;;;27.93;14.73;;;;;;;-5.46;74.24;95019.67;1613942;89;21086;-62
2021/12/24 02:29:18;;;;;;;35.07;17.67;;;;;;;-5.60;75.71;94970.36;1592266;89;21038;-63
2021/12/24 02:31:45;;;;;;;34.57;16.37;;;;;;;-5.55;75.47;94961.52;1613378;88;21074;-63
2021/12/24 02:34:11;;;;;;;31.53;16.20;;;;;;;-5.59;75.77;94961.84;1613320;89;21125;-63
2021/12/24 02:36:38;;;;;;;30.30;14.47;;;;;;;-5.63;76.05;94965.55;1613313;88;21517;-62
2021/12/24 02:39:06;;;;;;;25.60;14.67;;;;;;;-5.67;76.60;94951.70;1613573;88;21038;-63
2021/12/24 02:41:33;;;;;;;29.70;16.00;;;;;;;-5.72;77.13;94964.44;1613222;88;21086;-63
2021/12/24 02:44:00;;;;;;;32.53;15.73;;;;;;;-5.70;76.38;94947.77;1613573;88;21054;-62
2021/12/24 02:46:32;;;;;;;25.30;13.40;;;;;;;-5.72;76.15;94953.25;1613560;88;21082;-62
2021/12/24 02:54:14;;;;;;;30.97;16.00;;;;;;;-5.96;76.67;94945.66;1613476;88;21051;-64
2021/12/24 02:56:50;;;;;;;42.40;20.90;;;;;;;-5.96;76.67;94945.24;1613303;88;21090;-62
2021/12/24 02:59:17;;;;;;;34.67;17.50;;;;;;;-6.04;77.57;94923.99;1613223;89;21082;-63
2021/12/24 03:01:47;;;;;;;25.90;14.37;;;;;;;-6.01;78.23;94917.25;1613435;88;21058;-63
2021/12/24 03:04:16;;;;;;;35.63;16.37;;;;;;;-5.94;78.23;94910.63;1613533;88;21026;-63
2021/12/24 03:06:50;;;;;;;30.57;15.10;;;;;;;-5.92;78.75;94905.97;1613455;88;21003;-62
2021/12/24 03:09:19;;;;;;;28.03;15.23;;;;;;;-5.88;78.48;94892.38;1613430;88;21522;-63
2021/12/24 03:11:48;;;;;;;28.80;15.37;;;;;;;-5.88;77.54;94886.37;1613333;88;21083;-63
2021/12/24 03:14:19;;;;;;;24.70;13.43;;;;;;;-5.90;77.79;94883.78;1613436;88;21062;-62
2021/12/24 03:16:54;;;;;;;26.53;13.00;;;;;;;-5.84;77.99;94868.10;1613395;89;21030;-63
2021/12/24 03:19:19;;;;;;;32.63;16.67;;;;;;;-5.80;77.43;94857.08;1612792;89;21517;-62
2021/12/24 03:21:54;;;;;;;43.10;20.83;;;;;;;-5.86;78.81;94843.63;1613690;88;21043;-62
2021/12/24 03:26:47;;;;;;;22.80;12.70;;;;;;;-5.73;78.64;94848.74;1613398;88;21066;-62
2021/12/24 03:29:17;;;;;;;27.60;15.05;;;;;;;-5.74;78.94;94838.89;1613529;88;21600;-63
2021/12/24 03:31:45;;;;;;;31.23;15.10;;;;;;;-5.72;78.84;94834.67;1613495;89;21051;-62
2021/12/24 03:34:15;;;;;;;28.73;15.27;;;;;;;-5.70;78.34;94821.43;1613488;88;21058;-62
2021/12/24 03:36:42;;;;;;;25.20;13.27;;;;;;;-5.68;78.00;94840.34;1613302;88;21062;-63
2021/12/24 03:39:10;;;;;;;24.07;13.43;;;;;;;-5.65;77.77;94831.86;1613717;88;21031;-63
2021/12/24 03:41:38;;;;;;;25.70;13.40;;;;;;;-5.70;77.61;94832.13;1613086;88;21055;-63
2021/12/24 03:44:08;;;;;;;25.90;13.60;;;;;;;-5.78;78.07;94821.62;1613284;88;21038;-63
2021/12/24 03:49:28;;;;;;;29.40;13.97;;;;;;;-5.74;78.04;94820.03;1613770;89;21102;-63
2021/12/24 03:51:57;;;;;;;30.37;13.80;;;;;;;-5.82;78.97;94813.38;1611563;89;21334;-62
2021/12/24 03:57:04;;;;;;;21.13;10.70;;;;;;;-5.63;79.56;94816.08;1613388;88;21055;-62
2021/12/24 03:59:38;;;;;;;19.97;10.03;;;;;;;-5.61;80.24;94792.59;1609626;89;21030;-62
2021/12/24 04:02:24;;;;;;;21.67;11.87;;;;;;;-5.55;79.86;94797.03;1613375;88;21529;-63
2021/12/24 04:04:58;;;;;;;27.20;13.27;;;;;;;-5.62;79.31;94783.11;1597865;89;21022;-62
2021/12/24 04:07:25;;;;;;;27.77;11.53;;;;;;;-5.59;79.52;94769.09;1613396;89;21043;-62
2021/12/24 04:10:12;;;;;;;25.87;13.20;;;;;;;-5.60;79.76;94763.48;1609540;89;21034;-63
2021/12/24 04:12:26;;;;;;;22.20;12.53;;;;;;;-5.55;79.47;94755.91;1607645;89;21552;-63
2021/12/24 04:14:54;;;;;;;24.47;12.43;;;;;;;-5.53;80.18;94742.69;1613712;88;21026;-63
2021/12/24 04:17:21;;;;;;;14.27;8.43;;;;;;;-5.49;81.68;94758.25;1613455;89;21099;-63
2021/12/24 04:25:20;;;;;;;24.33;13.90;;;;;;;-5.30;81.30;94743.33;1613478;89;21608;-62
2021/12/24 04:27:49;;;;;;;28.80;13.70;;;;;;;-5.34;81.75;94737.25;1613161;88;21090;-62
2021/12/24 04:30:22;;;;;;;32.03;14.83;;;;;;;-5.32;81.17;94745.84;1613561;88;21493;-63
2021/12/24 04:33:01;;;;;;;25.43;12.85;;;;;;;-5.38;81.81;94740.97;1614528;88;21130;-63
2021/12/24 04:38:29;;;;;;;23.03;12.23;;;;;;;-5.30;80.99;94734.34;1618122;89;21572;-62
2021/12/24 04:51:46;;;;;;;21.37;11.67;;;;;;;-5.67;80.66;94752.17;1618183;89;21137;-62
2021/12/24 05:02:39;;;;;;;19.57;10.40;;;;;;;-5.69;82.45;94738.81;1617635;89;21062;-63
2021/12/24 05:05:00;;;;;;;21.60;11.87;;;;;;;-5.62;82.43;94717.58;1586958;89;21051;-62
2021/12/24 05:10:08;;;;;;;21.67;11.27;;;;;;;-5.51;81.43;94718.78;1618203;89;21105;-62
2021/12/24 05:24:51;;;;;;;18.27;10.97;;;;;;;-4.75;78.37;94666.75;1889107;76;22803;-60
2021/12/24 05:27:21;;;;;;;34.70;17.40;;;;;;;-5.10;80.43;94661.58;1865214;77;21490;-60
2021/12/24 05:29:47;;;;;;;54.63;29.77;;;;;;;-5.01;80.61;94681.13;1860437;77;21410;-61
2021/12/24 05:32:14;;;;;;;24.30;13.73;;;;;;;-4.95;80.47;94681.27;1831626;78;20962;-61
2021/12/24 05:34:41;;;;;;;15.30;8.47;;;;;;;-4.97;80.47;94679.06;1831571;78;21070;-61
2021/12/24 05:37:07;;;;;;;15.17;9.67;;;;;;;-5.01;80.54;94670.41;1831885;78;20981;-61
2021/12/24 05:39:34;;;;;;;22.17;12.40;;;;;;;-5.01;81.41;94672.12;1831818;78;21459;-61
2021/12/24 05:42:03;;;;;;;16.63;10.97;;;;;;;-4.97;82.50;94684.62;1831769;78;21505;-61
2021/12/24 05:44:33;;;;;;;20.20;11.23;;;;;;;-4.90;82.46;94690.39;1831381;78;21096;-62
2021/12/24 05:47:07;;;;;;;6.17;3.77;;;;;;;-4.75;83.60;94678.33;1831188;78;21000;-61
2021/12/24 05:49:42;;;;;;;18.07;8.40;;;;;;;-4.56;83.96;94679.23;1831068;78;21093;-61
2021/12/24 05:52:28;;;;;;;18.03;9.07;;;;;;;-4.32;85.88;94681.50;1831878;78;21479;-62
2021/12/24 05:55:00;;;;;;;19.40;9.43;;;;;;;-4.11;85.32;94660.92;1829910;78;21005;-61
2021/12/24 05:57:28;;;;;;;13.10;6.57;;;;;;;-2.82;92.28;94673.38;1831763;78;20922;-61
2021/12/24 05:59:55;;;;;;;10.63;7.63;;;;;;;-1.92;93.40;94658.41;1841444;77;20998;-61
2021/12/24 06:02:23;;;;;;;17.23;9.53;;;;;;;-1.46;90.48;94643.50;1865606;77;20939;-61
2021/12/24 06:04:49;;;;;;;18.43;10.20;;;;;;;-1.43;87.95;94654.31;1865374;77;21025;-61
2021/12/24 06:07:17;;;;;;;13.77;7.17;;;;;;;-1.33;87.82;94641.92;1865435;77;21002;-61
2021/12/24 06:09:43;;;;;;;8.57;5.53;;;;;;;-0.99;88.72;94649.61;1865224;77;21535;-61
2021/12/24 06:12:11;;;;;;;9.30;6.70;;;;;;;-0.26;89.16;94636.88;1865471;77;20990;-61
2021/12/24 06:15:03;;;;;;;9.47;6.57;;;;;;;0.13;88.40;94641.90;1865592;77;21029;-61
2021/12/24 06:17:25;;;;;;;9.73;6.53;;;;;;;0.67;87.14;94649.51;1784034;80;21023;-61
2021/12/24 06:19:52;;;;;;;10.83;6.93;;;;;;;1.01;85.83;94629.72;1783864;80;21018;-61
2021/12/24 06:22:19;;;;;;;10.77;6.10;;;;;;;1.29;84.72;94625.88;1784215;80;20986;-61
2021/12/24 06:24:45;;;;;;;7.60;4.63;;;;;;;1.39;83.87;94621.13;1784095;80;21018;-62
2021/12/24 06:27:12;;;;;;;11.13;6.50;;;;;;;1.47;83.48;94618.53;1746821;82;21595;-61
2021/12/24 06:29:38;;;;;;;8.27;5.50;;;;;;;1.59;83.12;94617.64;1749601;82;21545;-62
2021/12/24 06:32:06;;;;;;;6.13;4.40;;;;;;;1.65;83.06;94615.92;1749375;82;21004;-61
2021/12/24 06:34:33;;;;;;;4.77;2.87;;;;;;;1.68;83.26;94617.66;1747052;82;21496;-61
2021/12/24 06:37:00;;;;;;;6.60;2.73;;;;;;;1.75;83.12;94627.19;1749093;82;21023;-61
2021/12/24 06:39:27;;;;;;;4.63;3.47;;;;;;;1.80;83.04;94657.97;1749039;82;21005;-61
2021/12/24 06:41:54;;;;;;;5.67;3.70;;;;;;;1.94;82.90;94647.54;1746583;82;21070;-61
2021/12/24 06:44:22;;;;;;;3.73;2.87;;;;;;;2.03;82.87;94625.42;1720985;83;21557;-61
2021/12/24 06:46:49;;;;;;;3.43;2.63;;;;;;;2.02;82.65;94622.41;1715329;83;21010;-61
2021/12/24 06:49:16;;;;;;;3.93;2.60;;;;;;;2.10;82.84;94627.59;1748682;82;21088;-61
2021/12/24 06:51:43;;;;;;;4.60;2.70;;;;;;;2.07;82.72;94619.36;1746911;82;20959;-61
2021/12/24 06:54:10;;;;;;;5.87;3.40;;;;;;;2.02;82.59;94631.52;1748977;82;21070;-61
2021/12/24 06:56:38;;;;;;;5.67;3.93;;;;;;;1.97;82.53;94635.86;1744135;82;20993;-61
2021/12/24 06:59:05;;;;;;;10.37;7.80;;;;;;;1.98;82.33;94635.41;1749124;82;20988;-62
2021/12/24 07:01:32;;;;;;;7.30;5.03;;;;;;;1.98;83.01;94641.48;1748854;82;21525;-61
2021/12/24 07:03:59;;;;;;;3.73;2.50;;;;;;;1.97;83.29;94636.30;1749012;82;21571;-61
2021/12/24 07:06:26;;;;;;;2.93;2.50;;;;;;;2.02;83.54;94603.34;1746152;82;21058;-62
2021/12/24 07:08:52;;;;;;;3.10;2.40;;;;;;;2.04;83.47;94614.17;1699353;81;21061;-62
2021/12/24 07:11:19;;;;;;;3.47;2.30;;;;;;;2.07;83.49;94635.41;1697615;84;21623;-61
2021/12/24 07:13:46;;;;;;;3.43;2.67;;;;;;;2.05;83.46;94633.24;1697486;84;21003;-61
2021/12/24 07:16:13;;;;;;;2.60;1.83;;;;;;;2.10;83.36;94632.80;1697389;84;21456;-61
2021/12/24 07:18:40;;;;;;;2.67;1.93;;;;;;;2.15;83.26;94623.25;1697602;84;21535;-62
2021/12/24 07:21:07;;;;;;;4.50;3.40;;;;;;;2.19;82.73;94632.77;1697363;84;20979;-62
2021/12/24 07:23:33;;;;;;;5.03;3.37;;;;;;;2.17;82.34;94618.91;1697467;84;21050;-62
2021/12/24 07:26:01;;;;;;;2.07;1.83;;;;;;;2.20;82.15;94628.01;1697205;84;21042;-62
2021/12/24 07:28:28;;;;;;;4.77;3.23;;;;;;;2.27;82.08;94628.44;1697542;84;21042;-61
2021/12/24 07:30:54;;;;;;;7.07;4.23;;;;;;;2.23;82.56;94613.68;1755178;82;21007;-61
2021/12/24 07:33:22;;;;;;;5.87;3.20;;;;;;;2.18;82.35;94623.67;1755175;82;21513;-61
2021/12/24 07:35:48;;;;;;;4.70;3.03;;;;;;;2.15;82.39;94617.61;1755403;81;20995;-61
2021/12/24 07:38:15;;;;;;;4.90;3.00;;;;;;;2.10;82.91;94616.75;1741790;82;20984;-61
2021/12/24 07:40:45;;;;;;;3.93;2.33;;;;;;;2.09;82.91;94636.25;1742147;82;21000;-62
2021/12/24 07:43:12;;;;;;;7.17;6.43;;;;;;;2.05;83.28;94621.53;1742024;82;21492;-61
2021/12/24 07:45:40;;;;;;;2.53;2.33;;;;;;;2.03;83.32;94614.16;1741930;82;21053;-61
2021/12/24 07:48:12;;;;;;;3.23;2.30;;;;;;;2.08;83.26;94600.70;1741909;82;21051;-61
2021/12/24 07:53:15;;;;;;;3.25;2.80;;;;;;;2.21;83.36;94611.95;1742210;82;20995;-62
2021/12/24 07:55:43;;;;;;;2.43;1.67;;;;;;;2.19;83.21;94624.95;1741992;82;20991;-62
2021/12/24 07:58:10;;;;;;;2.47;1.93;;;;;;;2.24;83.21;94612.80;1741755;82;21599;-62
2021/12/24 08:00:39;;;;;;;2.60;2.00;;;;;;;2.27;83.28;94611.92;1741954;82;20980;-62
2021/12/24 08:03:06;;;;;;;2.37;1.70;;;;;;;2.30;83.34;94623.66;1741919;82;21062;-61
2021/12/24 08:05:38;;;;;;;1.37;1.00;;;;;;;2.31;83.05;94619.72;1742055;82;20972;-61
2021/12/24 08:08:06;;;;;;;2.53;1.60;;;;;;;2.33;83.26;94608.88;1736960;81;21652;-61
2021/12/24 08:10:34;;;;;;;2.57;1.60;;;;;;;2.32;82.99;94618.88;1730464;82;21007;-61
2021/12/24 08:13:02;;;;;;;4.13;2.57;;;;;;;2.33;82.79;94617.99;1730555;82;20996;-61
2021/12/24 08:15:29;;;;;;;3.83;2.50;;;;;;;2.34;82.79;94612.34;1715753;83;21008;-61
2021/12/24 08:17:56;;;;;;;3.60;1.80;;;;;;;2.37;82.81;94604.55;1715153;84;21073;-61
2021/12/24 08:20:25;;;;;;;2.87;2.47;;;;;;;2.34;82.69;94615.84;1715691;84;21025;-61
2021/12/24 08:22:54;;;;;;;2.67;2.00;;;;;;;2.36;82.54;94602.80;1715560;84;21148;-62
2021/12/24 08:25:22;;;;;;;3.67;2.27;;;;;;;2.41;82.09;94606.25;1715498;84;21041;-62
2021/12/24 08:27:49;;;;;;;2.80;2.30;;;;;;;2.41;82.12;94600.19;1730510;83;21540;-62
2021/12/24 08:30:16;;;;;;;3.30;1.97;;;;;;;2.43;81.86;94591.94;1715763;84;21043;-62
2021/12/24 08:32:42;;;;;;;2.90;1.70;;;;;;;2.40;81.90;94603.67;1715490;83;21040;-62
2021/12/24 08:35:14;;;;;;;30.53;14.80;;;;;;;2.39;82.10;94607.98;1715717;84;21056;-62
2021/12/24 08:37:42;;;;;;;11.87;5.80;;;;;;;2.35;82.17;94601.94;1715494;83;21040;-62
2021/12/24 08:40:11;;;;;;;8.33;5.80;;;;;;;2.35;82.52;94598.03;1730520;83;21489;-62
2021/12/24 08:42:37;;;;;;;2.73;1.90;;;;;;;2.36;82.40;94594.55;1715562;83;21542;-62
2021/12/24 08:45:06;;;;;;;2.30;2.00;;;;;;;2.42;82.43;94580.67;1715288;84;21072;-62
2021/12/24 08:47:33;;;;;;;3.07;1.80;;;;;;;2.54;82.41;94590.15;1715616;84;21104;-62
2021/12/24 08:49:59;;;;;;;3.33;2.20;;;;;;;2.62;82.38;94574.08;1715696;84;21060;-62
2021/12/24 08:52:26;;;;;;;4.40;2.03;;;;;;;2.65;82.22;94564.95;1715542;84;21024;-62
2021/12/24 08:54:53;;;;;;;2.90;2.20;;;;;;;2.70;82.29;94581.41;1715897;84;20997;-62
2021/12/24 08:57:19;;;;;;;3.33;2.40;;;;;;;2.73;82.03;94578.78;1715264;84;21053;-62
2021/12/24 08:59:46;;;;;;;4.37;3.00;;;;;;;2.74;82.18;94562.72;1715601;84;21040;-62
2021/12/24 09:02:12;;;;;;;3.80;2.83;;;;;;;2.75;82.57;94569.23;1715462;84;21009;-62
2021/12/24 09:04:39;;;;;;;3.27;2.73;;;;;;;2.78;82.71;94552.72;1715619;84;21553;-62
2021/12/24 09:07:06;;;;;;;4.80;2.80;;;;;;;2.83;82.71;94546.19;1730424;83;20995;-62
2021/12/24 09:09:32;;;;;;;3.47;2.77;;;;;;;2.85;82.75;94562.23;1714174;84;21105;-62
2021/12/24 09:11:59;;;;;;;4.93;2.37;;;;;;;2.86;82.87;94539.20;1713877;83;21062;-62
2021/12/24 09:14:26;;;;;;;4.03;2.80;;;;;;;2.96;82.61;94545.23;1714177;83;21002;-62
2021/12/24 09:16:53;;;;;;;5.37;3.53;;;;;;;3.06;82.26;94538.22;1687625;84;21476;-62
2021/12/24 09:19:25;;;;;;;4.30;2.80;;;;;;;3.10;82.72;94529.08;1714112;84;20994;-62
2021/12/24 09:21:49;;;;;;;4.93;3.40;;;;;;;3.11;82.55;94527.33;1714193;84;21042;-62
2021/12/24 09:24:18;;;;;;;9.80;6.03;;;;;;;3.14;82.66;94508.61;1714070;83;21038;-62
2021/12/24 09:26:44;;;;;;;4.03;2.60;;;;;;;3.18;83.10;94518.59;1714090;82;20991;-62
2021/12/24 09:29:11;;;;;;;2.50;1.80;;;;;;;3.25;83.29;94511.13;1714133;84;21022;-62
2021/12/24 09:31:38;;;;;;;2.77;1.87;;;;;;;3.39;82.69;94508.42;1714057;83;20983;-62
2021/12/24 09:34:05;;;;;;;3.67;2.10;;;;;;;3.48;82.79;94529.22;1714103;83;21025;-62
2021/12/24 09:36:32;;;;;;;3.20;2.20;;;;;;;3.52;82.81;94508.73;1713984;84;21054;-62
2021/12/24 09:39:03;;;;;;;4.13;2.87;;;;;;;3.58;82.92;94512.61;1713785;83;21497;-62
2021/12/24 09:41:30;;;;;;;4.00;2.10;;;;;;;3.66;82.68;94499.49;1714088;83;21484;-62
2021/12/24 09:43:59;;;;;;;3.27;1.20;;;;;;;3.71;82.78;94508.14;1714197;84;21050;-62
2021/12/24 09:46:27;;;;;;;2.00;1.47;;;;;;;3.77;82.62;94498.08;1714057;83;21006;-62
2021/12/24 09:48:55;;;;;;;13.40;6.60;;;;;;;3.80;82.41;94487.59;1713945;83;21058;-62
2021/12/24 09:51:25;;;;;;;3.33;2.30;;;;;;;3.83;82.34;94488.45;1714046;84;21030;-62
2021/12/24 09:53:53;;;;;;;4.93;2.60;;;;;;;3.84;82.96;94495.38;1714186;84;21042;-62
2021/12/24 09:56:21;;;;;;;3.40;1.93;;;;;;;3.88;82.62;94493.18;1713953;84;21018;-62
2021/12/24 09:58:49;;;;;;;4.37;3.37;;;;;;;3.91;82.68;94497.50;1714032;83;21118;-62
2021/12/24 10:01:33;;;;;;;3.77;2.97;;;;;;;3.86;82.88;94495.38;1714000;83;21512;-62
2021/12/24 10:04:08;;;;;;;3.20;2.30;;;;;;;3.94;83.10;94493.55;1713231;84;21050;-62
2021/12/24 10:06:36;;;;;;;6.67;6.07;;;;;;;3.96;83.05;94489.18;1714086;84;21002;-62
2021/12/24 10:09:11;;;;;;;1.20;1.10;;;;;;;3.99;82.89;94485.67;1722304;83;21005;-64
2021/12/24 10:11:50;;;;;;;1.30;1.20;;;;;;;4.03;83.07;94482.13;1728184;83;21012;-62
2021/12/24 10:14:20;;;;;;;1.00;0.80;;;;;;;4.04;82.97;94496.92;1728058;83;21032;-62
2021/12/24 10:16:50;;;;;;;1.10;0.97;;;;;;;4.04;82.88;94483.88;1727971;83;21051;-62
2021/12/24 10:19:19;;;;;;;1.80;1.30;;;;;;;4.14;82.83;94482.88;1728052;83;21491;-62
2021/12/24 10:21:51;;;;;;;0.97;0.80;;;;;;;4.13;82.80;94475.91;1728153;83;21013;-60
2021/12/24 10:24:19;;;;;;;0.93;0.90;;;;;;;4.14;82.73;94478.97;1727840;82;21043;-59
2021/12/24 10:26:51;;;;;;;1.00;0.77;;;;;;;4.14;82.83;94478.97;1728047;83;21008;-60
2021/12/24 10:29:22;;;;;;;0.67;0.63;;;;;;;4.15;82.83;94486.35;1726968;83;21048;-60
2021/12/24 10:31:56;;;;;;;1.37;1.07;;;;;;;4.10;82.71;94480.73;1727456;83;21008;-59
2021/12/24 10:34:31;;;;;;;1.33;0.73;;;;;;;4.12;82.89;94476.36;1728124;83;20989;-59
2021/12/24 10:37:09;;;;;;;1.17;0.83;;;;;;;4.09;82.85;94476.41;1701153;83;21028;-59
2021/12/24 10:39:46;;;;;;;1.13;1.00;;;;;;;4.06;83.00;94472.53;1727598;83;21053;-60
2021/12/24 10:42:35;;;;;;;1.70;0.90;;;;;;;4.10;83.29;94478.57;1728163;83;21008;-59
2021/12/24 10:45:06;;;;;;;2.27;1.53;;;;;;;4.04;83.09;94473.44;1728049;83;21040;-60
2021/12/24 10:47:39;;;;;;;0.93;0.67;;;;;;;3.98;82.58;94473.07;1728105;83;21518;-59
2021/12/24 10:53:20;;;;;;;3.90;1.00;;;;;;;3.86;82.66;94488.86;1727992;83;21533;-60
2021/12/24 10:55:52;;;;;;;1.90;1.00;;;;;;;3.88;81.98;94490.98;1728741;82;21044;-59
2021/12/24 10:58:23;;;;;;;1.63;1.10;;;;;;;3.83;81.68;94488.45;1727936;83;21040;-61
2021/12/24 11:00:59;;;;;;;1.97;1.50;;;;;;;3.67;81.33;94486.86;1728126;83;21529;-61
2021/12/24 11:03:31;;;;;;;1.60;1.17;;;;;;;3.61;81.75;94504.75;1728004;83;21008;-61
2021/12/24 11:06:08;;;;;;;2.07;1.50;;;;;;;3.54;81.76;94508.73;1727897;83;21017;-61
2021/12/24 11:08:36;;;;;;;1.20;0.80;;;;;;;3.47;81.75;94495.73;1727368;83;21506;-62
2021/12/24 11:11:06;;;;;;;1.10;0.87;;;;;;;3.39;82.35;94492.33;1724989;83;21052;-62
2021/12/24 11:13:39;;;;;;;1.80;1.10;;;;;;;3.37;82.19;94493.23;1724923;83;21013;-61
2021/12/24 11:16:13;;;;;;;0.88;0.60;;;;;;;3.33;82.69;94481.97;1725152;83;21025;-61
2021/12/24 11:18:47;;;;;;;1.30;0.90;;;;;;;3.27;83.09;94462.90;1724427;82;21509;-61
2021/12/24 11:21:26;;;;;;;3.27;0.90;;;;;;;3.26;83.35;94482.89;1724870;83;20989;-61
2021/12/24 11:23:54;;;;;;;1.10;1.00;;;;;;;3.32;82.72;94495.01;1724971;83;21025;-61
2021/12/24 11:26:26;;;;;;;1.50;1.13;;;;;;;3.33;83.41;94470.69;1724941;83;21025;-62
2021/12/24 11:28:55;;;;;;;2.55;1.87;;;;;;;3.28;83.85;94462.04;1724835;83;21024;-62
2021/12/24 11:31:25;;;;;;;1.77;1.30;;;;;;;3.30;83.74;94466.77;1725433;83;20985;-62
2021/12/24 11:33:53;;;;;;;1.13;0.97;;;;;;;3.33;83.61;94463.72;1724699;83;21004;-61
2021/12/24 11:36:23;;;;;;;2.53;0.83;;;;;;;3.31;84.15;94457.65;1724842;83;21580;-62
2021/12/24 11:38:56;;;;;;;0.40;0.40;;;;;;;3.31;84.82;94455.48;1725353;82;21047;-61
2021/12/24 11:41:29;;;;;;;0.50;0.42;;;;;;;3.36;84.60;94472.81;1724996;83;21518;-62
2021/12/24 11:43:57;;;;;;;0.70;0.43;;;;;;;3.48;84.33;94466.63;1724903;83;20985;-61
2021/12/24 11:46:26;;;;;;;0.50;0.50;;;;;;;3.50;84.30;94473.97;1724934;83;21024;-61
2021/12/24 11:48:55;;;;;;;0.30;0.30;;;;;;;3.50;84.71;94463.98;1724772;83;21132;-61
2021/12/24 11:51:33;;;;;;;0.60;0.50;;;;;;;3.52;85.04;94475.28;1724856;83;21000;-61
2021/12/24 11:54:04;;;;;;;0.93;0.60;;;;;;;3.61;84.94;94468.67;1724607;83;21072;-62
2021/12/24 11:56:52;;;;;;;0.70;0.70;;;;;;;3.64;84.47;94477.77;1724953;83;21040;-62
2021/12/24 11:59:40;;;;;;;1.70;0.70;;;;;;;3.72;84.34;94482.46;1725068;82;21032;-62
2021/12/24 12:02:07;;;;;;;2.13;0.77;;;;;;;3.76;84.69;94462.00;1724827;83;21017;-62
2021/12/24 12:04:35;;;;;;;1.60;1.30;;;;;;;3.86;84.72;94464.06;1744888;82;21036;-62
2021/12/24 12:07:16;;;;;;;1.43;0.93;;;;;;;3.86;84.69;94474.50;1725018;83;21046;-62
2021/12/24 12:09:46;;;;;;;1.30;0.90;;;;;;;3.89;84.81;94468.80;1718100;83;21038;-61
2021/12/24 12:12:16;;;;;;;5.17;1.50;;;;;;;3.90;84.68;94454.86;1714090;83;21548;-62
2021/12/24 12:14:41;;;;;;;2.23;1.50;;;;;;;3.95;84.47;94465.70;1714127;83;21045;-62
2021/12/24 12:17:09;;;;;;;2.80;1.50;;;;;;;4.00;84.15;94463.45;1713970;83;20998;-63
2021/12/24 12:22:43;;;;;;;1.23;1.10;;;;;;;4.04;84.07;94472.12;1714093;83;21065;-61
2021/12/24 12:25:09;;;;;;;3.50;1.67;;;;;;;4.09;84.00;94464.66;1713463;84;21070;-61
2021/12/24 12:27:47;;;;;;;2.23;1.53;;;;;;;4.06;84.43;94477.75;1713843;83;21028;-61
2021/12/24 12:30:28;;;;;;;1.50;1.20;;;;;;;4.09;84.33;94466.41;1711227;83;21026;-61
2021/12/24 12:33:11;;;;;;;1.37;1.00;;;;;;;4.06;84.34;94459.48;1713960;84;21492;-61
2021/12/24 12:35:54;;;;;;;1.27;1.00;;;;;;;4.11;84.33;94481.17;1703237;84;21567;-61
2021/12/24 12:38:44;;;;;;;1.40;1.12;;;;;;;4.10;84.36;94471.59;1714510;84;20990;-61
2021/12/24 12:41:39;;;;;;;3.80;1.10;;;;;;;4.12;84.30;94474.20;1714263;83;21562;-61
2021/12/24 12:44:08;;;;;;;1.30;1.00;;;;;;;4.10;84.47;94478.13;1714020;83;21018;-61
2021/12/24 12:46:40;;;;;;;0.73;0.63;;;;;;;4.08;84.70;94479.91;1714301;83;21014;-61
2021/12/24 12:49:10;;;;;;;1.00;0.90;;;;;;;4.12;85.08;94467.67;1714111;83;20979;-61
2021/12/24 12:52:01;;;;;;;2.47;1.07;;;;;;;4.16;85.11;94478.52;1713997;84;21022;-61
2021/12/24 12:54:47;;;;;;;1.50;0.87;;;;;;;4.21;85.10;94479.33;1714130;83;21006;-62
2021/12/24 12:57:31;;;;;;;1.47;1.00;;;;;;;4.26;85.03;94471.44;1713757;83;21030;-59
2021/12/24 13:00:27;;;;;;;1.13;1.03;;;;;;;4.27;85.21;94457.48;1713455;84;21551;-59
2021/12/24 13:05:55;;;;;;;1.20;0.93;;;;;;;4.36;84.69;94463.91;1713772;83;21071;-62
2021/12/24 13:08:25;;;;;;;2.40;1.23;;;;;;;4.42;84.69;94480.80;1714175;83;21022;-62
2021/12/24 13:11:12;;;;;;;2.17;1.33;;;;;;;4.46;84.55;94477.69;1719142;83;21013;-62
2021/12/24 13:14:01;;;;;;;2.00;1.30;;;;;;;4.43;84.32;94480.34;1755353;82;21011;-62
2021/12/24 13:16:49;;;;;;;3.03;1.53;;;;;;;4.42;84.58;94479.48;1755480;81;21019;-62
2021/12/24 13:25:13;;;;;;;2.07;1.67;;;;;;;4.62;84.44;94490.98;1755177;82;21106;-61
2021/12/24 13:27:55;;;;;;;5.17;2.90;;;;;;;4.69;84.13;94480.88;1755218;82;21018;-61
2021/12/24 13:30:26;;;;;;;3.27;1.80;;;;;;;4.69;84.11;94491.33;1755240;82;20991;-61
2021/12/24 13:33:07;;;;;;;6.70;6.00;;;;;;;4.67;84.20;94503.98;1755255;81;21586;-61
2021/12/24 13:35:49;;;;;;;2.50;1.50;;;;;;;4.73;83.86;94488.22;1755260;82;21082;-61
2021/12/24 13:38:18;;;;;;;1.50;1.13;;;;;;;4.72;83.96;94495.64;1755489;81;21444;-62
2021/12/24 13:40:46;;;;;;;1.60;1.07;;;;;;;4.72;83.90;94506.09;1755140;81;20967;-62
2021/12/24 13:43:15;;;;;;;2.23;1.60;;;;;;;4.77;83.97;94505.59;1755259;81;20998;-62
2021/12/24 13:45:47;;;;;;;1.70;1.37;;;;;;;4.83;83.82;94508.55;1741942;82;21072;-62
2021/12/24 13:48:23;;;;;;;2.23;1.60;;;;;;;4.81;83.76;94499.42;1741925;82;21031;-62
2021/12/24 13:56:44;;;;;;;2.90;2.00;;;;;;;4.75;83.86;94508.66;1741886;82;20995;-61
2021/12/24 13:59:14;;;;;;;3.37;1.43;;;;;;;4.77;83.59;94509.06;1742347;82;21015;-61
2021/12/24 14:01:43;;;;;;;2.20;1.60;;;;;;;4.78;83.69;94512.09;1742004;82;21055;-61